Newark Liberty International Airport
KEWR : now visible

Airfield :











YOU CAN JOIN US ON...

 
LOGIN :

Register | Disclaimer

   EN    FR    IT 

 









Legend :    VFR   Marginal VFR   IFR   Intensive IFR   Very Intensive IFR
Visi :
Ceiling :
>= 8 km
>= 3000ft
5 to 8 km
1000 to 3000 ft
1500m to 5 km
500 to 1000 ft
800 to 1500m
200 to 500 ft
< 800m
< 200 ft
Symbols :   Thunderstorms  Fog  Heavy snow  Heavy precipitations  Wind > 20 kt






- Airport Elevation : 18 ft
- IATA code : EWR


KEWR - Newark Liberty International

CURRENT METAR :
  • 240909Z 35006KT 8SM -RA SCT008 BKN055 OVC075 16/13 A3002 RMK AO2 P0000 T01560128 $

EXPIRED METARs :
  • 240858Z 01006KT 10SM +RA FEW043 SCT055 OVC070 15/13 A3001 RMK AO2 P0000 T01500128 $
  • 240851Z 02005KT 4SM +RA BR BKN013 BKN035 OVC048 15/13 A3001 RMK AO2 SLP163 P0016 60024 T01500128 51012 $
  • 240751Z 34007KT 10SM -RA FEW008 BKN013 OVC045 16/13 A3000 RMK AO2 SLP160 P0005 T01560133 $

TAF KEWR
Valid from the 24 at 09:00 until the 25 at 12:00 UTC


240831Z 2409/2512 30007KT P6SM -SHRA OVC035
TEMPO 2409/2412 BKN010
FM241200 30009KT P6SM SCT025 OVC035
FM241800 27008KT P6SM SCT050 SCT250
FM250000 33005KT P6SM SCT250
KZNY FIR / North America



MET'MAP, your aeronautical weather chart ! - Copyright ORBIFLY December 2007 - Disclaimer

ORBIFLY MET'MAP TEAM :

Programming & Development : Alexandra Zaïnal
Concept & original design : Baudouin d'Aumeries
Assistance for programming : Marc-Olivier Méhu
Technical & hardware support : Manuel Goepfert

Contact : metmap@orbifly.com




SOURCES & CREDITS :

   NOAA       Earth
Advisory